Time;durP1;ratioP1;P1;durP2;ratioP2;P2;SDS_P1;SDS_P2;PMS_P1;PMS_P2;Temp;Humidity;BMP_temperature;BMP_pressure;BME280_temperature;BME280_humidity;BME280_pressure;Samples;Min_cycle;Max_cycle;Signal;HPM_P1;HPM_P2
2021/12/03 00:02:24;;;;;;;6.37;5.73;;;11.40;98.50;;;12.60;48.67;100689.34;4992612;27;107326;-40
2021/12/03 00:04:50;;;;;;;5.90;5.27;;;11.50;96.90;;;12.63;48.65;100689.22;5012510;27;98154;-39
2021/12/03 00:07:16;;;;;;;4.40;4.00;;;11.50;97.30;;;12.58;48.92;100693.81;5008484;27;104633;-39
2021/12/03 00:09:42;;;;;;;3.73;3.40;;;11.40;96.90;;;12.57;48.84;100685.94;4992209;27;97730;-38
2021/12/03 00:12:09;;;;;;;3.80;3.40;;;11.30;97.80;;;12.56;48.95;100685.09;4992800;27;99333;-39
2021/12/03 00:14:35;;;;;;;6.43;5.83;;;11.30;98.90;;;12.57;48.80;100688.59;4988835;27;97445;-40
2021/12/03 00:17:02;;;;;;;5.43;4.87;;;11.30;97.50;;;12.50;49.14;100688.03;5008407;27;100748;-38
2021/12/03 00:19:28;;;;;;;8.57;7.60;;;11.20;97.20;;;12.48;49.09;100689.88;5006493;27;99078;-39
2021/12/03 00:21:54;;;;;;;4.13;3.73;;;11.10;97.80;;;12.45;49.09;100684.72;4992947;27;98972;-38
2021/12/03 00:24:21;;;;;;;4.53;3.60;;;11.10;98.50;;;12.42;49.23;100693.63;4978557;27;97374;-39
2021/12/03 00:26:47;;;;;;;4.80;4.30;;;11.10;97.90;;;12.47;49.04;100682.88;4992370;27;97462;-38
2021/12/03 00:29:13;;;;;;;5.07;4.37;;;11.20;98.40;;;12.53;48.81;100682.59;4996497;27;100409;-39
2021/12/03 00:31:39;;;;;;;5.13;4.40;;;11.30;98.00;;;12.58;48.95;100680.59;4991211;27;98871;-38
2021/12/03 00:34:05;;;;;;;10.90;9.80;;;11.50;97.90;;;12.63;48.58;100686.56;4997719;27;99606;-39
2021/12/03 00:36:31;;;;;;;9.40;7.90;;;11.50;96.20;;;12.60;48.68;100681.41;4991806;27;97446;-39
2021/12/03 00:38:59;;;;;;;16.57;12.47;;;11.40;96.90;;;12.53;48.54;100687.88;4995757;27;100974;-38
2021/12/03 00:41:32;;;;;;;7.43;6.67;;;11.20;97.10;;;12.51;48.84;100685.31;5010415;27;99138;-39
2021/12/03 00:43:58;;;;;;;9.60;8.53;;;11.20;97.30;;;12.43;48.87;100687.41;4994258;27;100203;-40
2021/12/03 00:46:24;;;;;;;10.87;9.67;;;11.10;97.40;;;12.40;49.14;100686.69;4994031;27;97425;-39
2021/12/03 00:48:53;;;;;;;8.23;5.83;;;11.00;97.40;;;12.36;49.12;100696.53;5010284;27;98379;-39
2021/12/03 00:51:23;;;;;;;13.13;11.00;;;11.00;97.30;;;12.35;49.26;100696.59;4998546;27;98564;-38
2021/12/03 00:53:49;;;;;;;5.03;4.47;;;11.00;97.40;;;12.31;49.35;100708.25;5003800;27;98674;-40
2021/12/03 00:56:17;;;;;;;7.93;6.43;;;10.90;97.70;;;12.28;49.48;100708.34;4997381;27;98328;-39
2021/12/03 00:58:43;;;;;;;8.00;7.13;;;10.90;98.10;;;12.28;49.59;100709.22;4990801;27;97840;-38
2021/12/03 01:01:09;;;;;;;5.33;4.80;;;10.90;98.10;;;12.30;49.54;100701.25;5014924;27;99479;-39
2021/12/03 01:03:36;;;;;;;14.37;12.13;;;11.00;97.90;;;12.30;49.32;100710.03;4990551;27;103328;-38
2021/12/03 01:06:03;;;;;;;6.60;5.97;;;11.00;97.90;;;12.35;49.42;100709.84;4996861;27;98283;-39
2021/12/03 01:08:31;;;;;;;6.50;5.30;;;11.10;98.50;;;12.41;49.33;100715.72;4991814;27;100777;-40
2021/12/03 01:10:58;;;;;;;5.73;4.70;;;11.20;98.30;;;12.46;49.18;100710.25;4994502;27;99482;-40
2021/12/03 01:13:24;;;;;;;7.00;6.10;;;11.30;98.40;;;12.49;48.88;100713.63;4993337;27;98509;-40
2021/12/03 01:15:50;;;;;;;11.47;10.37;;;11.40;97.70;;;12.52;48.79;100716.13;4993084;27;97648;-38
2021/12/03 01:18:16;;;;;;;6.60;5.67;;;11.40;97.40;;;12.56;48.78;100724.78;4997487;27;97678;-41
2021/12/03 01:20:44;;;;;;;7.83;6.20;;;11.40;97.70;;;12.60;49.06;100726.41;5011653;27;98555;-40
2021/12/03 01:23:12;;;;;;;5.67;4.73;;;11.40;97.80;;;12.58;49.13;100728.22;5012300;27;97227;-40
2021/12/03 01:25:38;;;;;;;12.17;10.90;;;11.40;97.70;;;12.58;48.76;100730.88;5012301;27;97280;-41
2021/12/03 01:28:04;;;;;;;9.83;8.83;;;11.30;98.00;;;12.59;48.64;100729.97;5010615;27;98292;-40
2021/12/03 01:30:33;;;;;;;11.90;10.70;;;11.40;98.50;;;12.58;48.77;100730.88;4993146;27;99160;-41
2021/12/03 01:33:05;;;;;;;4.10;3.70;;;11.50;97.20;;;12.60;48.84;100730.81;5020912;27;96996;-40
2021/12/03 01:35:31;;;;;;;5.37;4.87;;;11.40;98.50;;;12.65;48.80;100734.13;5025285;27;96854;-39
2021/12/03 01:37:57;;;;;;;5.27;4.30;;;11.50;98.50;;;12.68;49.01;100734.84;5013744;27;97564;-39
2021/12/03 01:40:27;;;;;;;8.20;6.73;;;11.60;98.20;;;12.73;48.87;100732.88;5026634;27;97218;-39
2021/12/03 01:42:53;;;;;;;5.83;5.20;;;11.60;98.20;;;12.81;48.77;100736.03;5004076;27;97189;-38
2021/12/03 01:45:25;;;;;;;7.03;6.33;;;11.80;98.10;;;12.85;48.61;100736.75;5026488;27;97057;-39
2021/12/03 01:47:52;;;;;;;9.87;8.33;;;11.80;97.70;;;12.87;48.36;100739.34;5011078;27;100203;-39
2021/12/03 01:50:25;;;;;;;7.87;7.03;;;11.70;97.20;;;12.87;48.31;100734.03;5032541;27;96610;-39
2021/12/03 01:52:52;;;;;;;5.77;4.93;;;11.70;97.60;;;12.87;48.35;100734.03;5010508;27;98934;-39
2021/12/03 01:55:17;;;;;;;7.03;5.57;;;11.70;98.40;;;12.89;48.59;100726.91;5015403;27;97075;-39
2021/12/03 01:57:44;;;;;;;4.17;3.77;;;11.80;98.00;;;12.91;48.54;100725.06;5011531;27;98196;-40
2021/12/03 02:00:22;;;;;;;8.07;7.27;;;11.80;98.70;;;12.96;48.16;100717.75;5036645;27;98346;-39
2021/12/03 02:02:49;;;;;;;12.33;10.53;;;11.90;97.50;;;12.97;47.99;100730.06;5009382;27;96809;-40
2021/12/03 02:05:15;;;;;;;12.13;10.47;;;11.90;97.30;;;12.95;48.29;100737.22;5011742;27;97031;-40
2021/12/03 02:07:43;;;;;;;10.70;8.23;;;11.80;97.60;;;12.95;48.13;100734.56;5010013;27;100110;-38
2021/12/03 02:10:09;;;;;;;16.30;14.57;;;11.80;97.70;;;12.89;48.37;100733.06;5013985;27;97153;-41
2021/12/03 02:12:35;;;;;;;5.37;4.87;;;11.70;97.40;;;12.86;48.62;100737.63;5010409;27;97256;-39
2021/12/03 02:15:03;;;;;;;4.17;3.77;;;11.70;98.50;;;12.88;48.42;100741.09;5016805;27;97183;-42
2021/12/03 02:17:29;;;;;;;4.50;4.10;;;11.80;98.90;;;12.93;48.47;100739.09;5026960;27;98748;-39
2021/12/03 02:19:55;;;;;;;11.17;8.23;;;12.00;97.90;;;12.95;48.20;100742.53;5019384;27;100074;-38
2021/12/03 02:22:21;;;;;;;5.73;4.80;;;12.00;97.10;;;12.98;48.29;100742.38;5008184;27;96822;-38
2021/12/03 02:24:47;;;;;;;14.70;12.73;;;12.00;97.70;;;12.98;48.11;100739.72;5010239;27;97509;-40
2021/12/03 02:27:13;;;;;;;6.70;5.50;;;12.00;97.30;;;12.98;48.23;100737.94;5027559;27;97829;-40
2021/12/03 02:29:39;;;;;;;14.67;13.20;;;11.90;97.70;;;12.98;47.93;100742.38;5032960;27;98362;-39
2021/12/03 02:32:06;;;;;;;5.37;4.33;;;11.90;97.00;;;12.97;48.44;100740.66;5026445;27;97542;-38
2021/12/03 02:34:32;;;;;;;11.67;10.17;;;11.90;98.10;;;12.97;48.17;100736.22;5026776;27;96965;-38
2021/12/03 02:36:58;;;;;;;13.23;11.17;;;11.90;97.30;;;12.97;48.03;100741.53;5018011;27;117391;-39
2021/12/03 02:39:23;;;;;;;13.83;11.77;;;11.90;97.50;;;12.91;47.89;100735.66;5010312;27;97981;-40
2021/12/03 02:41:49;;;;;;;11.17;9.13;;;11.80;97.10;;;12.86;48.36;100742.91;5013134;27;97727;-38
2021/12/03 02:44:15;;;;;;;4.80;4.37;;;11.80;97.50;;;12.88;48.74;100741.09;5012504;27;97099;-38
2021/12/03 02:46:41;;;;;;;5.17;4.17;;;11.80;98.50;;;12.82;48.67;100737.75;4992282;27;100503;-39
2021/12/03 02:49:08;;;;;;;22.00;17.13;;;11.70;98.30;;;12.72;47.99;100741.72;5014404;27;96880;-39
2021/12/03 02:51:34;;;;;;;22.03;17.50;;;11.70;97.60;;;12.49;46.68;100733.94;5005068;27;97209;-40
2021/12/03 02:54:01;;;;;;;24.87;17.30;;;11.50;97.00;;;12.39;48.21;100737.88;4998445;27;97556;-40
2021/12/03 02:56:27;;;;;;;18.03;13.90;;;11.40;97.50;;;12.41;48.96;100720.16;5013836;27;99956;-38
2021/12/03 02:58:52;;;;;;;21.57;16.70;;;11.40;98.00;;;12.42;47.77;100732.44;5010417;27;99419;-39
2021/12/03 03:01:18;;;;;;;20.43;17.37;;;11.50;97.50;;;12.36;47.82;100727.44;5012751;27;102919;-39
2021/12/03 03:03:44;;;;;;;15.63;14.00;;;11.40;97.30;;;12.37;49.12;100731.78;5012872;27;97577;-40
2021/12/03 03:06:10;;;;;;;13.37;10.20;;;11.40;98.10;;;12.35;49.58;100736.28;5013540;27;97842;-39
2021/12/03 03:08:40;;;;;;;18.33;16.23;;;11.30;98.40;;;12.21;46.89;100737.72;5010391;27;99640;-38
2021/12/03 03:11:06;;;;;;;21.27;18.10;;;11.20;97.10;;;12.18;46.93;100740.50;5012931;27;97553;-39
2021/12/03 03:13:34;;;;;;;7.30;5.37;;;11.20;97.70;;;12.20;49.99;100733.34;5012588;27;97442;-39
2021/12/03 03:16:00;;;;;;;10.70;9.47;;;11.10;99.00;;;12.28;50.21;100740.94;5010178;27;97501;-38
2021/12/03 03:18:28;;;;;;;18.20;15.03;;;11.30;98.60;;;12.32;49.08;100736.41;5028118;27;97156;-39
2021/12/03 03:20:56;;;;;;;13.33;9.87;;;11.40;98.10;;;12.31;49.92;100732.06;5028592;27;97245;-40
2021/12/03 03:23:22;;;;;;;8.57;7.47;;;11.30;98.30;;;12.32;49.78;100732.00;5011437;27;96809;-38
2021/12/03 03:25:49;;;;;;;19.80;16.47;;;11.30;98.40;;;12.33;49.02;100732.84;5009733;27;108587;-39
2021/12/03 03:28:17;;;;;;;20.47;16.87;;;11.30;98.00;;;12.28;49.63;100740.09;5043462;27;98795;-38
2021/12/03 03:30:45;;;;;;;11.00;9.50;;;11.20;98.80;;;12.32;50.23;100736.41;5010724;27;97176;-38
2021/12/03 03:33:13;;;;;;;19.70;16.87;;;11.30;99.00;;;12.26;46.85;100741.94;5013182;27;97585;-38
2021/12/03 03:35:39;;;;;;;11.30;9.03;;;11.20;98.00;;;12.16;50.15;100734.41;5009255;27;97598;-38
2021/12/03 03:38:05;;;;;;;21.27;16.27;;;11.20;98.40;;;12.19;49.47;100744.84;5019260;27;97197;-39
2021/12/03 03:40:32;;;;;;;13.40;11.27;;;11.20;98.50;;;12.20;50.45;100738.63;5023830;27;96862;-39
2021/12/03 03:43:00;;;;;;;5.87;4.70;;;11.10;98.70;;;12.25;50.22;100732.28;5032136;27;97407;-39
2021/12/03 03:45:28;;;;;;;8.80;7.50;;;11.10;99.60;;;12.27;50.14;100733.94;5027146;27;99919;-39
2021/12/03 03:47:54;;;;;;;7.90;6.20;;;11.20;99.00;;;12.27;50.25;100741.03;5030018;27;98436;-38
2021/12/03 03:50:22;;;;;;;21.50;15.30;;;11.20;99.20;;;12.30;49.47;100739.13;5006995;27;101204;-39
2021/12/03 03:52:51;;;;;;;19.60;14.30;;;11.30;98.30;;;12.33;49.64;100727.56;5006538;27;97501;-39
2021/12/03 03:55:18;;;;;;;5.03;4.07;;;11.30;98.50;;;12.34;50.02;100718.69;5026423;27;96979;-38
2021/12/03 03:57:47;;;;;;;18.03;14.50;;;11.30;99.40;;;12.41;49.00;100717.50;5010456;27;97654;-39
2021/12/03 04:00:19;;;;;;;17.47;14.70;;;11.40;98.10;;;12.49;48.90;100720.69;5030542;27;101664;-39
2021/12/03 04:02:46;;;;;;;11.00;8.17;;;11.50;98.00;;;12.48;49.42;100722.47;5012063;27;97567;-39
2021/12/03 04:05:13;;;;;;;16.63;12.53;;;11.50;98.40;;;12.47;49.22;100720.75;5018554;27;99497;-39
2021/12/03 04:07:40;;;;;;;5.20;4.70;;;11.50;98.40;;;12.52;49.51;100717.91;5010486;27;100433;-38
2021/12/03 04:10:08;;;;;;;19.53;14.33;;;11.50;98.40;;;12.44;47.57;100704.13;5025922;27;97254;-39
2021/12/03 04:12:34;;;;;;;15.37;11.30;;;11.50;98.00;;;12.45;49.40;100700.59;5010561;27;97250;-39
2021/12/03 04:15:01;;;;;;;10.07;8.43;;;11.50;98.10;;;12.43;49.48;100705.06;5032136;27;98529;-38
2021/12/03 04:17:27;;;;;;;21.50;14.37;;;11.40;98.50;;;12.36;46.80;100695.69;5007079;27;98090;-39
2021/12/03 04:19:53;;;;;;;16.13;12.20;;;11.40;97.70;;;12.19;45.62;100694.59;5019339;27;99156;-39
2021/12/03 04:22:23;;;;;;;19.30;14.40;;;11.30;97.30;;;12.06;48.12;100697.81;5014025;27;97068;-39
2021/12/03 04:24:55;;;;;;;5.30;4.30;;;11.10;97.70;;;12.12;50.76;100693.13;5009520;27;101641;-38
2021/12/03 04:27:21;;;;;;;4.20;3.67;;;11.20;99.70;;;12.28;50.34;100687.19;5025711;27;97368;-38
2021/12/03 04:29:47;;;;;;;5.37;3.33;;;11.50;99.60;;;12.44;50.22;100677.69;5011369;27;97082;-38
2021/12/03 04:32:14;;;;;;;17.83;12.57;;;11.70;99.70;;;12.49;49.11;100686.31;5007225;27;97335;-40
2021/12/03 04:34:41;;;;;;;4.17;3.07;;;11.80;97.80;;;12.64;49.55;100685.63;5017434;27;97644;-38
2021/12/03 04:37:07;;;;;;;4.33;3.57;;;11.90;98.90;;;12.76;49.38;100682.47;5031392;27;97172;-39
2021/12/03 04:39:33;;;;;;;8.87;7.37;;;12.10;98.40;;;12.84;48.88;100687.41;5009609;27;96836;-38
2021/12/03 04:41:59;;;;;;;3.90;3.50;;;12.10;97.90;;;12.89;48.83;100679.25;5013737;27;97185;-41
2021/12/03 04:44:25;;;;;;;5.60;4.07;;;12.10;98.50;;;12.98;48.59;100692.06;5014538;27;97534;-39
2021/12/03 04:46:51;;;;;;;6.10;5.17;;;12.20;97.70;;;13.01;48.35;100683.97;5017795;27;119287;-39
2021/12/03 04:49:16;;;;;;;4.90;3.83;;;12.30;97.60;;;13.09;48.56;100681.88;5015029;27;97835;-39
2021/12/03 04:51:42;;;;;;;8.13;6.80;;;12.30;98.30;;;13.16;48.31;100682.44;5034177;27;99918;-38
2021/12/03 04:54:08;;;;;;;11.90;8.53;;;12.40;97.30;;;13.20;47.87;100690.22;5021634;27;97460;-39
2021/12/03 04:56:34;;;;;;;9.67;8.30;;;12.30;97.20;;;13.17;48.07;100669.16;4994660;27;99051;-39
2021/12/03 04:59:00;;;;;;;9.67;7.80;;;12.30;97.20;;;13.16;48.08;100683.28;5013507;27;97336;-39
2021/12/03 05:01:26;;;;;;;9.67;7.70;;;12.30;97.20;;;13.16;47.78;100678.00;5014306;27;96982;-39
2021/12/03 05:03:52;;;;;;;5.47;4.27;;;12.20;97.30;;;13.18;48.06;100681.50;5015408;27;100900;-39
2021/12/03 05:06:29;;;;;;;4.93;4.40;;;12.30;98.20;;;13.16;48.09;100677.13;5014975;27;98294;-39
2021/12/03 05:08:55;;;;;;;10.00;7.13;;;12.20;97.30;;;13.13;48.26;100672.84;5010083;27;97257;-40
2021/12/03 05:11:20;;;;;;;7.03;4.37;;;12.20;97.70;;;13.11;48.61;100685.28;5018155;27;96922;-39
2021/12/03 05:13:47;;;;;;;13.30;11.33;;;12.20;98.10;;;13.09;47.96;100684.50;5013716;27;99648;-40
2021/12/03 05:16:13;;;;;;;9.93;7.57;;;12.10;97.50;;;13.02;48.32;100691.03;5013723;27;98327;-39
2021/12/03 05:18:39;;;;;;;15.23;11.33;;;12.00;97.60;;;12.72;47.87;100699.38;5012211;27;97790;-42
2021/12/03 05:21:04;;;;;;;15.27;11.03;;;11.90;97.20;;;12.57;44.39;100704.47;5011867;27;97050;-39
2021/12/03 05:23:32;;;;;;;12.87;9.13;;;11.90;96.20;;;12.27;49.08;100701.34;5016007;27;97742;-39
2021/12/03 05:25:58;;;;;;;11.13;7.40;;;11.50;97.00;;;12.25;49.71;100700.56;5028594;27;97467;-39
2021/12/03 05:28:27;;;;;;;10.60;7.67;;;11.40;98.30;;;12.03;47.26;100697.97;5028192;27;96988;-38
2021/12/03 05:30:53;;;;;;;10.10;8.83;;;11.30;97.50;;;11.89;46.89;100695.88;5028686;27;96921;-40
2021/12/03 05:33:19;;;;;;;15.53;8.70;;;11.20;97.30;;;11.83;47.16;100691.66;5017300;27;96796;-39
2021/12/03 05:35:48;;;;;;;10.20;7.10;;;11.10;98.30;;;11.58;47.98;100694.41;5028060;27;98265;-38
2021/12/03 05:38:14;;;;;;;6.57;5.07;;;10.90;97.90;;;11.66;49.33;100694.09;5012807;27;97356;-38
2021/12/03 05:40:40;;;;;;;15.23;10.20;;;10.90;98.70;;;11.52;46.52;100691.13;5021871;27;102686;-38
2021/12/03 05:43:06;;;;;;;11.23;5.97;;;10.90;97.60;;;11.63;51.60;100697.72;5017802;27;100341;-39
2021/12/03 05:45:35;;;;;;;14.40;9.70;;;10.80;99.20;;;11.73;50.92;100697.38;5029212;27;99198;-39
2021/12/03 05:48:01;;;;;;;13.53;10.33;;;10.90;98.60;;;11.74;48.21;100696.44;5017846;27;97055;-38
2021/12/03 05:50:29;;;;;;;9.93;6.43;;;10.90;97.90;;;11.79;51.41;100700.66;5032529;27;97033;-38
2021/12/03 05:52:57;;;;;;;6.77;5.67;;;10.90;98.90;;;11.85;51.22;100704.81;5013997;27;97379;-39
2021/12/03 05:55:23;;;;;;;13.77;9.00;;;11.00;99.70;;;11.96;50.55;100707.91;4999227;27;97991;-43
2021/12/03 05:57:49;;;;;;;9.23;4.90;;;11.10;98.80;;;12.05;50.82;100707.53;5012816;27;96973;-39
2021/12/03 06:00:24;;;;;;;13.70;9.27;;;11.10;99.40;;;12.08;50.28;100701.25;5037198;27;97589;-39
2021/12/03 06:02:52;;;;;;;11.80;7.83;;;11.20;99.00;;;12.10;50.25;100699.41;5009431;27;101674;-38
2021/12/03 06:05:21;;;;;;;15.83;9.00;;;11.20;98.70;;;12.10;49.22;100700.25;5018776;27;100184;-39
2021/12/03 06:07:47;;;;;;;12.27;7.47;;;11.30;98.40;;;12.16;50.08;100702.69;5025310;27;97014;-38
2021/12/03 06:10:13;;;;;;;13.17;7.37;;;11.30;98.40;;;12.01;49.91;100705.94;5034870;27;97289;-38
2021/12/03 06:12:38;;;;;;;15.17;8.60;;;11.20;98.20;;;12.03;49.14;100698.81;5013790;27;96805;-39
2021/12/03 06:15:05;;;;;;;13.00;8.00;;;11.20;98.00;;;12.07;49.69;100705.69;5031348;27;100069;-39
2021/12/03 06:17:31;;;;;;;12.43;8.70;;;11.30;98.20;;;11.75;47.04;100700.81;5005361;27;96894;-38
2021/12/03 06:19:57;;;;;;;10.07;7.23;;;11.10;97.10;;;11.77;50.92;100706.91;5013514;27;98155;-38
2021/12/03 06:22:23;;;;;;;14.60;8.50;;;11.00;98.50;;;11.74;50.31;100704.38;5006024;27;97105;-42
2021/12/03 06:24:49;;;;;;;9.60;5.77;;;10.90;98.70;;;11.75;47.60;100701.66;5028991;27;97606;-38
2021/12/03 06:27:15;;;;;;;14.77;8.60;;;11.00;98.50;;;11.55;47.49;100697.16;5010987;27;96869;-38
2021/12/03 06:29:41;;;;;;;13.67;7.63;;;10.90;97.20;;;11.56;50.03;100698.88;5011005;27;98659;-38
2021/12/03 06:32:09;;;;;;;10.17;6.80;;;10.80;98.40;;;11.46;49.13;100702.81;5031565;27;112726;-38
2021/12/03 06:34:36;;;;;;;14.70;8.73;;;10.70;98.30;;;11.24;47.53;100697.47;5011044;27;97215;-40
2021/12/03 06:37:03;;;;;;;9.90;5.77;;;10.60;98.00;;;11.37;51.61;100703.16;5025898;27;97040;-39
2021/12/03 06:39:29;;;;;;;11.97;7.93;;;10.60;99.50;;;11.38;50.51;100699.59;5026217;27;97667;-38
2021/12/03 06:41:54;;;;;;;6.07;3.83;;;10.60;99.20;;;11.39;51.81;100703.94;5018383;27;97500;-38
2021/12/03 06:44:20;;;;;;;5.10;3.73;;;10.60;99.90;;;11.55;52.14;100706.84;5014007;27;98664;-38
2021/12/03 06:46:46;;;;;;;9.93;6.70;;;10.80;99.90;;;11.79;50.91;100700.66;5029582;27;97296;-39
2021/12/03 06:49:12;;;;;;;11.10;8.07;;;11.10;99.10;;;11.84;50.08;100716.31;5010178;27;96920;-38
2021/12/03 06:51:42;;;;;;;4.77;3.17;;;11.10;98.90;;;11.97;51.29;100714.91;5005992;27;98452;-38
2021/12/03 06:54:10;;;;;;;12.13;7.17;;;11.20;99.90;;;11.97;50.97;100709.63;5013262;27;99162;-40
2021/12/03 06:56:48;;;;;;;10.60;7.37;;;11.20;99.20;;;12.02;49.47;100707.66;5028645;27;96747;-40
2021/12/03 06:59:15;;;;;;;8.63;5.77;;;11.20;99.00;;;11.98;50.94;100711.34;4996506;27;98584;-38
2021/12/03 07:01:42;;;;;;;9.10;5.60;;;11.10;99.50;;;11.87;48.99;100714.44;5012154;27;98800;-39
2021/12/03 07:04:08;;;;;;;12.97;8.17;;;11.00;99.50;;;11.95;50.32;100707.97;5017556;27;97084;-38
2021/12/03 07:06:34;;;;;;;12.47;6.50;;;11.00;99.30;;;11.96;50.36;100705.25;5013081;27;97036;-38
2021/12/03 07:09:00;;;;;;;7.97;4.13;;;11.10;99.30;;;12.04;51.30;100702.31;5002400;27;96978;-38
2021/12/03 07:11:26;;;;;;;10.40;6.20;;;11.10;99.90;;;12.15;50.59;100697.41;5010670;27;97409;-38
2021/12/03 07:13:52;;;;;;;16.20;6.83;;;11.20;99.60;;;12.05;50.49;100702.25;5015390;27;114315;-39
2021/12/03 07:16:17;;;;;;;13.30;7.90;;;11.20;99.10;;;11.83;47.90;100704.03;5029166;27;103806;-39
2021/12/03 07:18:43;;;;;;;15.73;8.13;;;11.10;98.50;;;11.78;49.63;100713.91;5005045;27;98272;-39
2021/12/03 07:21:10;;;;;;;16.87;7.57;;;10.90;98.90;;;11.65;51.87;100696.81;5010874;27;98604;-38
2021/12/03 07:23:37;;;;;;;9.57;7.33;;;10.80;99.70;;;11.36;50.02;100698.78;5028384;27;98925;-38
2021/12/03 07:26:02;;;;;;;9.87;6.00;;;10.60;99.30;;;11.45;52.28;100694.94;5011262;27;97229;-39
2021/12/03 07:28:30;;;;;;;15.13;7.87;;;10.70;99.90;;;11.46;48.17;100702.81;5009048;27;97051;-38
2021/12/03 07:30:56;;;;;;;9.37;5.43;;;10.90;98.60;;;11.39;52.43;100705.72;5014842;27;98803;-40
2021/12/03 07:33:22;;;;;;;17.53;7.83;;;10.80;99.80;;;11.33;51.40;100702.41;5018461;27;98092;-38
2021/12/03 07:35:48;;;;;;;12.20;6.57;;;10.70;98.80;;;11.26;52.75;100705.34;5004960;27;97763;-38
2021/12/03 07:38:17;;;;;;;18.20;7.67;;;10.60;99.40;;;11.30;52.66;100701.69;5029439;27;96938;-38
2021/12/03 07:40:45;;;;;;;17.37;8.30;;;10.60;99.90;;;11.16;51.77;100709.25;4992401;27;99030;-44
2021/12/03 07:43:12;;;;;;;12.27;6.50;;;10.50;99.30;;;11.28;50.47;100700.84;5015340;27;97977;-38
2021/12/03 07:45:38;;;;;;;11.17;4.77;;;10.60;99.90;;;11.27;52.39;100704.41;5005812;27;97642;-38
2021/12/03 07:48:06;;;;;;;10.67;5.50;;;10.60;99.90;;;11.27;52.66;100712.34;5028283;27;97319;-39
2021/12/03 07:50:34;;;;;;;14.00;7.13;;;10.50;99.90;;;11.38;50.13;100715.44;5013302;27;97156;-39
2021/12/03 07:53:02;;;;;;;9.67;5.20;;;10.70;99.00;;;11.50;50.56;100717.63;5032127;27;96969;-39
2021/12/03 07:55:28;;;;;;;15.90;7.40;;;10.80;99.90;;;11.44;50.24;100715.22;5007338;27;96900;-40
2021/12/03 07:57:55;;;;;;;13.27;6.30;;;10.80;98.70;;;11.46;49.78;100708.09;5008539;27;96869;-38
2021/12/03 08:00:22;;;;;;;17.00;7.80;;;10.90;98.70;;;11.31;48.12;100703.41;5003327;27;96950;-38
2021/12/03 08:02:48;;;;;;;13.37;7.27;;;10.70;98.40;;;11.24;48.19;100702.75;4995005;27;100144;-38
2021/12/03 08:05:14;;;;;;;8.83;5.33;;;10.70;98.30;;;11.25;51.05;100712.41;4994325;27;98381;-38
2021/12/03 08:07:45;;;;;;;11.73;6.23;;;10.60;99.20;;;11.21;48.99;100708.16;4993397;27;98597;-39
2021/12/03 08:10:13;;;;;;;15.30;6.63;;;10.70;98.90;;;11.22;47.68;100712.50;4995327;27;98120;-38
2021/12/03 08:12:40;;;;;;;13.83;6.27;;;10.60;98.20;;;11.19;49.42;100717.06;4992128;27;100110;-39
2021/12/03 08:15:07;;;;;;;12.90;5.97;;;10.60;97.50;;;11.19;50.81;100714.41;4997900;27;98701;-40
2021/12/03 08:17:33;;;;;;;7.97;3.93;;;10.60;98.30;;;11.37;50.44;100713.72;4983737;27;96950;-39
2021/12/03 08:19:59;;;;;;;10.40;4.90;;;10.70;98.80;;;11.40;51.35;100712.72;5014042;27;98500;-40
2021/12/03 08:22:25;;;;;;;17.53;6.43;;;10.70;98.90;;;11.46;49.82;100718.66;4992097;27;97982;-38
2021/12/03 08:24:51;;;;;;;8.10;5.47;;;10.80;97.70;;;11.37;45.55;100719.00;4997567;27;98498;-39
2021/12/03 08:27:17;;;;;;;9.90;4.53;;;10.80;96.40;;;11.43;48.50;100713.50;4994726;27;99001;-38
2021/12/03 08:29:43;;;;;;;10.50;4.03;;;10.80;97.80;;;11.28;51.54;100719.34;4991549;27;98356;-39
2021/12/03 08:32:10;;;;;;;7.63;4.67;;;10.70;98.50;;;11.17;50.26;100727.69;4997594;27;100850;-38
2021/12/03 08:34:37;;;;;;;8.90;4.47;;;10.60;97.10;;;11.41;49.30;100731.16;4992192;27;98633;-38
2021/12/03 08:37:05;;;;;;;7.60;4.63;;;10.80;97.30;;;11.51;48.47;100727.25;4997012;27;97375;-38
2021/12/03 08:39:31;;;;;;;13.87;6.07;;;10.90;97.30;;;11.32;46.87;100731.53;4990023;27;97887;-38
2021/12/03 08:41:57;;;;;;;10.80;4.90;;;10.80;96.40;;;11.28;51.22;100727.25;4998742;27;99356;-39
2021/12/03 08:44:23;;;;;;;11.03;4.80;;;10.60;97.80;;;11.49;49.95;100726.47;4995420;27;97058;-38
2021/12/03 08:47:03;;;;;;;13.10;5.70;;;10.80;98.60;;;11.36;45.73;100727.84;4994776;27;98191;-38
2021/12/03 08:52:23;;;;;;;13.47;4.00;;;10.80;97.40;;;11.54;50.34;100718.34;5000023;27;97304;-40
2021/12/03 08:54:54;;;;;;;12.70;4.80;;;10.90;97.50;;;11.59;51.16;100711.97;4994940;27;97703;-38
2021/12/03 08:57:31;;;;;;;5.00;2.70;;;10.90;97.90;;;11.75;49.96;100703.47;4981859;27;100900;-38
2021/12/03 09:00:06;;;;;;;9.80;5.17;;;11.10;98.10;;;11.74;47.29;100696.44;4987882;27;101666;-39
2021/12/03 09:02:31;;;;;;;10.67;4.90;;;11.10;96.50;;;11.61;48.54;100696.06;4992456;27;97935;-38
2021/12/03 09:04:57;;;;;;;12.20;4.80;;;11.00;96.20;;;11.74;48.91;100696.44;4997198;27;99177;-39
2021/12/03 09:07:23;;;;;;;5.43;2.30;;;11.10;96.80;;;11.84;50.51;100700.47;4997339;27;104084;-39
2021/12/03 09:09:49;;;;;;;11.03;5.20;;;11.20;98.10;;;11.76;44.64;100705.19;4996895;27;101569;-38
2021/12/03 09:12:15;;;;;;;11.87;5.00;;;11.20;95.70;;;11.29;44.03;100713.16;4998931;27;102619;-38
2021/12/03 09:14:44;;;;;;;5.77;3.37;;;10.90;95.00;;;11.41;51.74;100704.75;4993998;27;97294;-38
2021/12/03 09:22:19;;;;;;;14.37;5.13;;;10.80;96.10;;;11.27;46.51;100701.78;4998342;27;98633;-39
2021/12/03 09:24:45;;;;;;;11.03;4.03;;;10.80;96.40;;;11.18;50.74;100699.50;4973658;27;96798;-38
2021/12/03 09:27:11;;;;;;;12.53;3.93;;;10.60;97.30;;;10.98;45.23;100695.78;4996349;27;98583;-38
2021/12/03 09:29:37;;;;;;;7.27;3.70;;;10.60;95.90;;;11.07;50.24;100699.03;5013169;27;100618;-38
2021/12/03 09:32:04;;;;;;;9.63;3.50;;;10.50;96.30;;;10.86;44.96;100691.00;4996204;27;99079;-40
2021/12/03 09:34:31;;;;;;;8.73;3.07;;;10.50;95.20;;;10.80;45.53;100696.47;4993644;27;97650;-38
2021/12/03 09:36:57;;;;;;;10.00;3.87;;;10.50;94.90;;;10.85;48.68;100684.00;4998671;27;97712;-39
2021/12/03 09:39:24;;;;;;;8.07;3.53;;;10.40;96.30;;;10.57;45.56;100699.06;4998618;27;100145;-38
2021/12/03 09:41:54;;;;;;;8.13;3.10;;;10.30;95.70;;;10.78;51.69;100685.13;5010984;27;101807;-38
2021/12/03 09:44:22;;;;;;;7.47;3.00;;;10.30;97.80;;;10.94;49.61;100688.91;4999357;27;99357;-38
2021/12/03 09:46:48;;;;;;;12.10;3.83;;;10.50;97.00;;;10.79;44.48;100689.47;4993631;27;97084;-38
2021/12/03 09:49:24;;;;;;;9.13;2.97;;;10.60;95.30;;;11.11;46.96;100682.16;4999107;27;99756;-38
2021/12/03 09:55:01;;;;;;;6.77;2.10;;;10.80;98.10;;;11.05;47.11;100670.03;4935838;28;97189;-38
2021/12/03 10:13:41;;;;;;;13.13;4.00;;;10.60;96.50;;;11.12;49.13;100676.81;4992203;27;100380;-39
2021/12/03 12:56:45;;;;;;;8.13;3.60;;;11.20;95.30;;;11.31;45.04;100445.47;4995723;27;99024;-39
2021/12/03 14:55:55;;;;;;;6.27;3.27;;;11.30;96.40;;;11.71;42.47;100294.94;4997055;27;97349;-38
2021/12/03 14:58:29;;;;;;;7.00;3.60;;;11.50;93.00;;;11.82;45.40;100290.03;4998662;27;98608;-38
2021/12/03 15:00:58;;;;;;;4.67;3.23;;;11.50;94.20;;;11.60;43.93;100283.09;4992754;27;102430;-38
2021/12/03 15:24:42;;;;;;;4.57;2.50;;;11.10;94.80;;;11.07;43.60;100297.81;4997800;27;99299;-38
2021/12/03 15:32:50;;;;;;;3.97;2.80;;;11.00;95.40;;;11.05;46.66;100291.75;4995072;27;97666;-38
2021/12/03 15:56:55;;;;;;;4.33;2.37;;;10.80;96.50;;;11.23;48.71;100269.81;4993131;27;96772;-39
2021/12/03 16:05:04;;;;;;;4.70;2.60;;;11.00;97.20;;;11.51;47.08;100267.66;4996555;27;98805;-39
2021/12/03 16:12:51;;;;;;;4.30;2.73;;;11.60;97.40;;;12.14;47.98;100236.50;4999537;27;98767;-38